createdAt,value
2023-08-14T00:01:54.865Z,96.31
2023-08-14T00:04:40.990Z,96.41
2023-08-14T00:07:27.224Z,96.85
2023-08-14T00:10:13.551Z,96.59
2023-08-14T00:13:00.028Z,96.75
2023-08-14T00:15:46.023Z,96.68
2023-08-14T00:18:32.429Z,96.97
2023-08-14T00:21:18.576Z,97.18
2023-08-14T00:24:05.013Z,98.35
2023-08-14T00:26:51.180Z,98.19
2023-08-14T00:29:37.345Z,98.15
2023-08-14T00:32:23.609Z,98.75
2023-08-14T00:35:10.006Z,98.29
2023-08-14T00:37:56.249Z,98.54
2023-08-14T00:40:43.404Z,98.75
2023-08-14T00:43:29.654Z,98.84
2023-08-14T00:46:16.127Z,98.86
2023-08-14T00:49:02.915Z,99.54
2023-08-14T00:51:49.700Z,99.75
2023-08-14T00:54:35.870Z,99.20
2023-08-14T00:57:21.893Z,99.07
2023-08-14T01:00:10.169Z,99.05
2023-08-14T01:02:56.823Z,98.99
2023-08-14T01:05:43.287Z,99.21
2023-08-14T01:08:30.358Z,98.82
2023-08-14T01:11:30.605Z,99.08
2023-08-14T01:14:32.291Z,99.12
2023-08-14T01:17:22.583Z,99.18
2023-08-14T01:20:10.877Z,99.36
2023-08-14T01:23:18.007Z,99.37
2023-08-14T01:26:04.609Z,99.90
2023-08-14T01:28:51.751Z,99.90
2023-08-14T01:31:37.914Z,99.82
2023-08-14T01:34:24.846Z,100.00
2023-08-14T01:37:17.423Z,100.00
2023-08-14T01:40:17.893Z,100.00
2023-08-14T01:43:10.602Z,99.75
2023-08-14T01:45:58.888Z,99.66
2023-08-14T01:48:48.490Z,99.76
2023-08-14T01:51:34.877Z,99.93
2023-08-14T01:54:21.083Z,99.69
2023-08-14T01:57:08.602Z,99.98
2023-08-14T01:59:55.188Z,100.00
2023-08-14T02:02:41.280Z,100.00
2023-08-14T02:05:27.484Z,100.00
2023-08-14T02:08:13.709Z,99.98
2023-08-14T02:11:09.894Z,100.00
2023-08-14T02:13:56.855Z,100.00
2023-08-14T02:16:43.148Z,100.00
2023-08-14T02:19:29.252Z,100.00
2023-08-14T02:22:15.930Z,100.00
2023-08-14T02:25:02.965Z,100.00
2023-08-14T02:27:49.370Z,99.94
2023-08-14T02:30:37.772Z,100.00
2023-08-14T02:33:24.875Z,100.00
2023-08-14T02:36:10.722Z,100.00
2023-08-14T02:38:56.965Z,100.00
2023-08-14T02:41:43.460Z,100.00
2023-08-14T02:44:30.669Z,100.00
2023-08-14T02:47:18.219Z,100.00
2023-08-14T02:50:04.814Z,100.00
2023-08-14T02:52:51.255Z,100.00
2023-08-14T02:55:37.432Z,100.00
2023-08-14T02:58:23.932Z,100.00
2023-08-14T03:01:10.345Z,100.00
2023-08-14T03:03:56.860Z,100.00
2023-08-14T03:06:42.918Z,100.00
2023-08-14T03:09:29.205Z,100.00
2023-08-14T03:12:16.023Z,100.00
2023-08-14T03:15:02.945Z,100.00
2023-08-14T03:17:49.110Z,100.00
2023-08-14T03:20:35.418Z,100.00
2023-08-14T03:23:21.609Z,100.00
2023-08-14T03:26:07.591Z,100.00
2023-08-14T03:28:53.706Z,100.00
2023-08-14T03:31:40.240Z,100.00
2023-08-14T03:34:26.833Z,100.00
2023-08-14T03:37:14.533Z,100.00
2023-08-14T03:40:00.749Z,99.68
2023-08-14T03:42:48.660Z,99.52
2023-08-14T03:45:34.988Z,99.26
2023-08-14T03:48:20.919Z,99.37
2023-08-14T03:51:07.255Z,98.94
2023-08-14T03:53:53.402Z,98.59
2023-08-14T03:56:40.166Z,98.69
2023-08-14T03:59:27.295Z,98.52
2023-08-14T04:02:14.557Z,98.23
2023-08-14T04:05:02.362Z,98.18
2023-08-14T04:07:49.177Z,97.94
2023-08-14T04:10:37.502Z,97.77
2023-08-14T04:13:26.997Z,97.46
2023-08-14T04:16:13.603Z,97.31
2023-08-14T04:19:00.018Z,97.13
2023-08-14T04:21:46.924Z,96.66
2023-08-14T04:24:32.970Z,96.25
2023-08-14T04:27:19.729Z,96.03
2023-08-14T04:30:06.694Z,95.61
2023-08-14T04:32:53.185Z,94.99
2023-08-14T04:35:41.495Z,94.75
2023-08-14T04:38:28.043Z,94.37
2023-08-14T04:41:14.441Z,94.16
2023-08-14T04:44:00.862Z,93.83
2023-08-14T04:46:58.128Z,93.52
2023-08-14T04:49:47.615Z,92.90
2023-08-14T04:52:33.699Z,92.56
2023-08-14T04:55:20.025Z,92.24
2023-08-14T04:58:06.625Z,92.03
2023-08-14T05:00:54.518Z,91.52
2023-08-14T05:03:41.219Z,90.95
2023-08-14T05:06:27.378Z,90.47
2023-08-14T05:09:25.685Z,89.30
2023-08-14T05:12:13.463Z,88.59
2023-08-14T05:14:59.727Z,87.95
2023-08-14T05:17:47.043Z,87.23
2023-08-14T05:20:35.222Z,86.40
2023-08-14T05:23:21.968Z,85.71
2023-08-14T05:26:08.213Z,84.83
2023-08-14T05:28:54.403Z,84.14
2023-08-14T05:31:40.842Z,82.30
2023-08-14T05:34:27.284Z,79.53
2023-08-14T05:37:13.258Z,76.67
2023-08-14T05:39:59.518Z,73.26
2023-08-14T05:43:13.774Z,68.32
2023-08-14T05:46:00.099Z,64.00
2023-08-14T05:48:46.688Z,60.93
2023-08-14T05:51:33.202Z,59.25
2023-08-14T05:54:21.430Z,57.88
2023-08-14T05:57:07.631Z,56.08
2023-08-14T05:59:56.729Z,54.45
2023-08-14T06:02:42.638Z,52.72
2023-08-14T06:05:29.180Z,51.87
2023-08-14T06:08:15.738Z,49.80
2023-08-14T06:11:03.566Z,48.98
2023-08-14T06:13:49.704Z,48.26
2023-08-14T06:16:36.194Z,48.11
2023-08-14T06:19:22.749Z,47.73
2023-08-14T06:22:09.163Z,46.75
2023-08-14T06:24:55.878Z,46.26
2023-08-14T06:27:42.346Z,44.35
2023-08-14T06:30:30.516Z,43.01
2023-08-14T06:33:16.904Z,43.14
2023-08-14T06:36:03.503Z,42.23
2023-08-14T06:38:50.102Z,41.54
2023-08-14T06:41:37.220Z,40.31
2023-08-14T06:44:24.370Z,39.26
2023-08-14T06:47:10.745Z,39.16
2023-08-14T06:49:56.752Z,38.76
2023-08-14T06:52:42.735Z,36.78
2023-08-14T06:55:28.924Z,36.30
2023-08-14T06:58:15.557Z,35.83
2023-08-14T07:01:01.714Z,34.87
2023-08-14T07:03:48.511Z,34.03
2023-08-14T07:06:35.143Z,33.20
2023-08-14T07:09:21.696Z,31.38
2023-08-14T07:12:07.928Z,30.63
2023-08-14T07:14:54.320Z,30.48
2023-08-14T07:17:40.679Z,30.31
2023-08-14T07:20:27.337Z,29.92
2023-08-14T07:23:16.714Z,29.63
2023-08-14T07:26:12.025Z,28.89
2023-08-14T07:28:58.147Z,28.55
2023-08-14T07:31:44.335Z,28.03
2023-08-14T07:34:30.710Z,27.31
2023-08-14T07:37:17.114Z,26.78
2023-08-14T07:40:07.000Z,26.35
2023-08-14T07:42:53.250Z,26.45
2023-08-14T07:45:39.340Z,26.62
2023-08-14T07:48:25.741Z,26.29
2023-08-14T07:51:11.840Z,25.75
2023-08-14T07:53:57.886Z,24.90
2023-08-14T07:56:46.538Z,25.12
2023-08-14T07:59:33.756Z,24.42
2023-08-14T08:02:20.604Z,24.60
2023-08-14T08:05:08.076Z,24.47
2023-08-14T08:07:54.362Z,24.49
2023-08-14T08:10:40.667Z,23.93
2023-08-14T08:13:27.822Z,23.53
2023-08-14T08:16:13.892Z,23.98
2023-08-14T08:19:00.388Z,24.12
2023-08-14T08:21:47.799Z,23.68
2023-08-14T08:24:33.983Z,23.46
2023-08-14T08:27:20.151Z,24.17
2023-08-14T08:30:07.112Z,24.36
2023-08-14T08:32:53.281Z,23.63
2023-08-14T08:35:39.787Z,23.57
2023-08-14T08:38:26.116Z,23.32
2023-08-14T08:41:31.618Z,23.32
2023-08-14T08:44:26.897Z,22.78
2023-08-14T08:47:16.120Z,22.54
2023-08-14T08:50:04.154Z,22.40
2023-08-14T08:52:52.149Z,22.57
2023-08-14T08:55:38.552Z,23.36
2023-08-14T08:58:26.383Z,23.00
2023-08-14T09:01:13.822Z,23.12
2023-08-14T09:04:04.358Z,23.29
2023-08-14T09:06:50.696Z,23.65
2023-08-14T09:09:37.068Z,23.66
2023-08-14T09:12:23.428Z,24.09
2023-08-14T09:15:10.400Z,23.49
2023-08-14T09:17:56.486Z,22.80
2023-08-14T09:20:43.024Z,22.99
2023-08-14T09:23:33.126Z,22.73
2023-08-14T09:26:20.506Z,22.00
2023-08-14T09:29:06.640Z,21.91
2023-08-14T09:31:53.094Z,22.08
2023-08-14T09:34:39.489Z,22.35
2023-08-14T09:37:26.325Z,22.15
2023-08-14T09:40:16.239Z,22.18
2023-08-14T09:43:02.732Z,22.17
2023-08-14T09:45:49.109Z,22.28
2023-08-14T09:48:48.045Z,22.44
2023-08-14T09:51:34.746Z,22.54
2023-08-14T09:54:32.323Z,23.00
2023-08-14T09:57:22.263Z,22.88
2023-08-14T10:00:12.960Z,22.91
2023-08-14T10:03:03.726Z,23.22
2023-08-14T10:05:50.935Z,23.15
2023-08-14T10:08:39.208Z,22.57
2023-08-14T10:11:28.274Z,22.38
2023-08-14T10:14:18.264Z,21.94
2023-08-14T10:17:10.107Z,22.17
2023-08-14T10:19:59.793Z,21.85
2023-08-14T10:22:47.000Z,21.08
2023-08-14T10:25:38.837Z,20.81
2023-08-14T10:28:25.727Z,21.41
2023-08-14T10:31:13.138Z,21.45
2023-08-14T10:34:00.442Z,20.94
2023-08-14T10:36:52.837Z,21.43
2023-08-14T10:39:39.224Z,21.30
2023-08-14T10:42:25.788Z,20.62
2023-08-14T10:45:16.308Z,20.73
2023-08-14T10:48:09.785Z,20.93
2023-08-14T10:51:00.375Z,20.87
2023-08-14T10:53:46.774Z,21.11
2023-08-14T10:56:52.487Z,21.89
2023-08-14T10:59:41.531Z,22.12
2023-08-14T11:02:29.972Z,22.18
2023-08-14T11:05:17.271Z,22.80
2023-08-14T11:08:06.471Z,23.47
2023-08-14T11:10:53.026Z,25.12
2023-08-14T11:13:39.471Z,24.87
2023-08-14T11:16:25.876Z,24.08
2023-08-14T11:19:13.435Z,24.16
2023-08-14T11:21:59.787Z,24.24
2023-08-14T11:24:47.227Z,24.74
2023-08-14T11:27:33.749Z,25.36
2023-08-14T11:30:26.223Z,25.72
2023-08-14T11:33:12.956Z,26.64
2023-08-14T11:36:04.161Z,27.29
2023-08-14T11:38:57.954Z,27.53
2023-08-14T11:41:44.108Z,28.05
2023-08-14T11:44:30.317Z,28.66
2023-08-14T11:47:17.864Z,29.22
2023-08-14T11:50:05.222Z,30.04
2023-08-14T11:52:52.179Z,30.31
2023-08-14T11:55:38.710Z,30.80
2023-08-14T11:58:24.825Z,31.31
2023-08-14T12:01:11.291Z,31.85
2023-08-14T12:03:57.824Z,33.17
2023-08-14T12:06:44.327Z,33.85
2023-08-14T12:09:31.222Z,34.28
2023-08-14T12:12:18.756Z,35.13
2023-08-14T12:15:06.305Z,35.92
2023-08-14T12:17:53.567Z,36.61
2023-08-14T12:20:40.068Z,37.92
2023-08-14T12:23:26.425Z,38.94
2023-08-14T12:26:12.983Z,39.47
2023-08-14T12:28:59.410Z,39.62
2023-08-14T12:31:47.547Z,40.01
2023-08-14T12:34:34.190Z,40.64
2023-08-14T12:37:21.373Z,41.21
2023-08-14T12:40:09.827Z,41.49
2023-08-14T12:42:56.120Z,41.59
2023-08-14T12:45:42.847Z,42.07
2023-08-14T12:48:29.724Z,41.56
2023-08-14T12:51:15.737Z,41.87
2023-08-14T12:54:02.461Z,42.02
2023-08-14T12:56:48.832Z,42.26
2023-08-14T12:59:34.776Z,42.99
2023-08-14T13:05:10.482Z,43.40
2023-08-14T13:07:56.721Z,43.65
2023-08-14T13:10:42.880Z,43.59
2023-08-14T13:13:30.055Z,43.52
2023-08-14T13:16:17.336Z,43.82
2023-08-14T13:19:03.793Z,44.53
2023-08-14T13:21:50.055Z,44.66
2023-08-14T13:24:35.928Z,44.84
2023-08-14T13:27:22.641Z,44.80
2023-08-14T13:30:13.302Z,44.62
2023-08-14T13:33:06.159Z,44.79
2023-08-14T13:35:52.866Z,45.11
2023-08-14T13:38:39.725Z,45.31
2023-08-14T13:41:26.649Z,45.32
2023-08-14T13:44:13.338Z,45.43
2023-08-14T13:47:02.438Z,45.21
2023-08-14T13:49:49.947Z,45.55
2023-08-14T13:52:36.057Z,46.01
2023-08-14T13:55:22.376Z,45.94
2023-08-14T13:58:11.421Z,45.57
2023-08-14T14:00:58.004Z,45.65
2023-08-14T14:03:44.361Z,45.88
2023-08-14T14:06:30.399Z,46.11
2023-08-14T14:09:17.055Z,46.44
2023-08-14T14:12:03.888Z,46.52
2023-08-14T14:14:50.075Z,46.40
2023-08-14T14:17:36.512Z,46.63
2023-08-14T14:20:24.235Z,46.71
2023-08-14T14:23:11.077Z,46.40
2023-08-14T14:25:57.505Z,46.60
2023-08-14T14:28:43.816Z,46.23
2023-08-14T14:31:32.414Z,45.99
2023-08-14T14:34:19.466Z,46.28
2023-08-14T14:37:05.989Z,46.93
2023-08-14T14:39:52.738Z,47.80
2023-08-14T14:42:39.237Z,48.26
2023-08-14T14:45:34.542Z,48.51
2023-08-14T14:48:21.762Z,48.67
2023-08-14T14:51:08.129Z,49.14
2023-08-14T14:53:54.822Z,49.32
2023-08-14T14:56:41.051Z,49.75
2023-08-14T14:59:27.231Z,49.43
2023-08-14T15:02:27.618Z,49.66
2023-08-14T15:05:27.813Z,49.59
2023-08-14T15:08:15.329Z,49.80
2023-08-14T15:11:01.761Z,49.97
2023-08-14T15:13:47.853Z,50.48
2023-08-14T15:16:33.869Z,51.22
2023-08-14T15:19:20.366Z,51.82
2023-08-14T15:22:07.177Z,52.19
2023-08-14T15:25:00.026Z,52.65
2023-08-14T15:27:46.013Z,52.80
2023-08-14T15:30:36.052Z,53.17
2023-08-14T15:33:22.449Z,53.30
2023-08-14T15:36:08.688Z,53.20
2023-08-14T15:38:55.846Z,53.28
2023-08-14T15:41:42.609Z,53.35
2023-08-14T15:44:28.900Z,53.18
2023-08-14T15:47:15.234Z,53.51
2023-08-14T15:50:01.940Z,53.70
2023-08-14T15:52:48.785Z,53.81
2023-08-14T15:55:34.926Z,53.82
2023-08-14T15:58:21.194Z,53.53
2023-08-14T16:01:07.372Z,53.68
2023-08-14T16:03:53.690Z,53.46
2023-08-14T16:06:40.181Z,53.86
2023-08-14T16:09:26.356Z,53.83
2023-08-14T16:12:13.592Z,54.00
2023-08-14T16:15:00.686Z,53.91
2023-08-14T16:17:47.652Z,53.59
2023-08-14T16:20:34.143Z,53.31
2023-08-14T16:23:20.625Z,53.35
2023-08-14T16:26:07.160Z,53.55
2023-08-14T16:28:53.251Z,53.47
2023-08-14T16:31:39.483Z,53.22
2023-08-14T16:34:26.268Z,53.09
2023-08-14T16:37:12.978Z,53.77
2023-08-14T16:39:59.547Z,53.88
2023-08-14T16:42:46.350Z,54.04
2023-08-14T16:45:32.998Z,54.18
2023-08-14T16:48:19.592Z,54.47
2023-08-14T16:51:05.962Z,54.58
2023-08-14T16:53:52.724Z,54.67
2023-08-14T16:56:39.293Z,54.42
2023-08-14T16:59:25.833Z,54.29
2023-08-14T17:02:12.406Z,54.75
2023-08-14T17:04:59.954Z,55.47
2023-08-14T17:07:46.233Z,55.69
2023-08-14T17:10:37.045Z,55.97
2023-08-14T17:13:23.197Z,56.33
2023-08-14T17:16:11.480Z,56.90
2023-08-14T17:18:57.457Z,56.98
2023-08-14T17:21:45.941Z,57.54
2023-08-14T17:24:33.222Z,58.06
2023-08-14T17:27:19.731Z,58.54
2023-08-14T17:30:07.495Z,58.73
2023-08-14T17:32:56.151Z,59.06
2023-08-14T17:35:46.418Z,59.47
2023-08-14T17:38:33.819Z,59.36
2023-08-14T17:41:20.196Z,59.66
2023-08-14T17:44:06.706Z,59.94
2023-08-14T17:46:52.775Z,60.11
2023-08-14T17:49:38.829Z,60.33
2023-08-14T17:52:26.098Z,60.35
2023-08-14T17:55:12.279Z,60.64
2023-08-14T17:57:58.679Z,60.83
2023-08-14T18:00:50.271Z,60.74
2023-08-14T18:03:37.012Z,60.92
2023-08-14T18:06:24.586Z,61.08
2023-08-14T18:09:10.891Z,61.08
2023-08-14T18:11:57.167Z,61.19
2023-08-14T18:14:43.614Z,61.34
2023-08-14T18:17:30.066Z,61.48
2023-08-14T18:20:16.421Z,62.03
2023-08-14T18:23:02.762Z,62.22
2023-08-14T18:25:54.011Z,62.15
2023-08-14T18:28:40.597Z,62.66
2023-08-14T18:31:27.075Z,62.85
2023-08-14T18:34:13.446Z,62.91
2023-08-14T18:36:59.663Z,63.40
2023-08-14T18:39:45.722Z,63.64
2023-08-14T18:42:31.897Z,63.74
2023-08-14T18:45:18.092Z,63.84
2023-08-14T18:48:05.222Z,63.99
2023-08-14T18:50:51.641Z,64.49
2023-08-14T18:53:38.427Z,64.70
2023-08-14T18:56:24.830Z,65.03
2023-08-14T18:59:12.467Z,65.30
2023-08-14T19:01:58.808Z,65.36
2023-08-14T19:04:45.319Z,65.89
2023-08-14T19:07:31.704Z,66.52
2023-08-14T19:10:18.176Z,67.16
2023-08-14T19:13:04.432Z,67.87
2023-08-14T19:15:50.704Z,68.34
2023-08-14T19:18:37.121Z,69.07
2023-08-14T19:21:23.782Z,69.63
2023-08-14T19:24:10.114Z,70.03
2023-08-14T19:26:56.358Z,70.80
2023-08-14T19:29:42.486Z,71.31
2023-08-14T19:32:28.894Z,71.55
2023-08-14T19:35:15.483Z,72.17
2023-08-14T19:38:01.679Z,72.57
2023-08-14T19:40:47.977Z,73.37
2023-08-14T19:43:33.850Z,73.95
2023-08-14T19:46:20.193Z,74.40
2023-08-14T19:49:06.354Z,74.84
2023-08-14T19:51:52.228Z,75.01
2023-08-14T19:54:38.198Z,75.36
2023-08-14T19:57:24.458Z,75.74
2023-08-14T20:00:11.421Z,76.24
2023-08-14T20:02:57.846Z,76.50
2023-08-14T20:05:49.779Z,76.72
2023-08-14T20:08:38.393Z,76.71
2023-08-14T20:11:24.674Z,77.16
2023-08-14T20:14:13.025Z,77.39
2023-08-14T20:16:59.342Z,77.44
2023-08-14T20:19:45.384Z,78.06
2023-08-14T20:22:31.368Z,78.54
2023-08-14T20:25:18.964Z,78.92
2023-08-14T20:28:06.600Z,79.41
2023-08-14T20:30:54.184Z,79.80
2023-08-14T20:33:40.699Z,80.14
2023-08-14T20:36:32.564Z,80.23
2023-08-14T20:39:18.950Z,80.89
2023-08-14T20:42:06.665Z,81.04
2023-08-14T20:44:53.446Z,81.75
2023-08-14T20:47:40.077Z,81.63
2023-08-14T20:50:26.718Z,82.32
2023-08-14T20:53:15.378Z,82.94
2023-08-14T20:56:03.424Z,83.18
2023-08-14T20:58:49.867Z,83.61
2023-08-14T21:01:36.217Z,84.11
2023-08-14T21:04:22.953Z,84.16
2023-08-14T21:07:09.737Z,84.54
2023-08-14T21:09:56.208Z,84.95
2023-08-14T21:12:42.669Z,85.28
2023-08-14T21:15:29.498Z,85.81
2023-08-14T21:18:16.266Z,86.45
2023-08-14T21:21:03.079Z,86.57
2023-08-14T21:23:49.841Z,86.91
2023-08-14T21:26:36.959Z,87.32
2023-08-14T21:29:23.349Z,87.56
2023-08-14T21:32:09.607Z,87.87
2023-08-14T21:34:56.085Z,88.03
2023-08-14T21:37:42.385Z,88.43
2023-08-14T21:40:28.561Z,88.86
2023-08-14T21:43:14.841Z,88.85
2023-08-14T21:46:02.360Z,89.05
2023-08-14T21:48:48.903Z,89.62
2023-08-14T21:51:35.010Z,89.69
2023-08-14T21:54:21.567Z,89.71
2023-08-14T21:57:07.638Z,90.22
2023-08-14T21:59:53.857Z,90.78
2023-08-14T22:02:40.241Z,91.03
2023-08-14T22:05:26.487Z,91.18
2023-08-14T22:08:12.887Z,91.38
2023-08-14T22:11:01.445Z,91.79
2023-08-14T22:13:47.455Z,91.93
2023-08-14T22:16:33.622Z,91.97
2023-08-14T22:19:19.928Z,91.79
2023-08-14T22:22:05.729Z,91.85
2023-08-14T22:24:52.184Z,91.93
2023-08-14T22:27:40.815Z,91.84
2023-08-14T22:30:26.994Z,91.95
2023-08-14T22:33:13.306Z,92.00
2023-08-14T22:35:59.999Z,92.10
2023-08-14T22:38:46.440Z,92.37
2023-08-14T22:41:32.834Z,92.62
2023-08-14T22:44:19.124Z,92.43
2023-08-14T22:47:05.152Z,92.47
2023-08-14T22:49:51.605Z,92.51
2023-08-14T22:52:37.781Z,92.56
2023-08-14T22:55:24.042Z,93.01
2023-08-14T22:58:10.658Z,92.91
2023-08-14T23:00:57.217Z,93.00
2023-08-14T23:03:43.380Z,92.71
2023-08-14T23:06:29.870Z,92.79
2023-08-14T23:09:15.913Z,93.14
2023-08-14T23:12:02.168Z,93.38
2023-08-14T23:14:48.709Z,93.39
2023-08-14T23:17:35.192Z,93.51
2023-08-14T23:20:21.530Z,93.70
2023-08-14T23:23:07.826Z,93.84
2023-08-14T23:25:53.968Z,93.88
2023-08-14T23:28:40.568Z,93.77
2023-08-14T23:31:26.686Z,93.84
2023-08-14T23:34:12.644Z,94.22
2023-08-14T23:36:58.767Z,94.01
2023-08-14T23:39:45.336Z,93.83
2023-08-14T23:42:31.719Z,93.89
2023-08-14T23:45:18.426Z,94.10
2023-08-14T23:48:08.278Z,94.31
2023-08-14T23:50:54.751Z,94.52
2023-08-14T23:53:41.158Z,94.44
2023-08-14T23:56:27.445Z,94.47
2023-08-14T23:59:13.643Z,94.51
